Wetterdaten: Woche 04.12.17 - 10.12.17 (KW49)
Datum Zeit Temperatur Luftfeuchte Luftdruck Niederschlag Windrichtung Sonnenschein Solar Wind
04.12.2017 00:00 -1,9 C 94 % 1027,4 hPa 0,2 l/m W-SW 0,00 h 0 W/m 18,2 km/h (3 Bft)
04.12.2017 01:00 -1,9 C 94 % 1027,5 hPa 0,0 l/m W-SW 0,00 h 0 W/m 20,0 km/h (4 Bft)
04.12.2017 02:00 -1,7 C 94 % 1028,1 hPa 0,0 l/m SW 0,00 h 0 W/m 22,4 km/h (4 Bft)
04.12.2017 03:00 -1,5 C 93 % 1028,4 hPa 0,0 l/m W-SW 0,00 h 0 W/m 16,6 km/h (3 Bft)
04.12.2017 04:00 -1,4 C 94 % 1028,4 hPa 0,4 l/m SW 0,00 h 0 W/m 13,2 km/h (3 Bft)
04.12.2017 05:00 -1,4 C 94 % 1028,6 hPa 0,0 l/m SW 0,00 h 0 W/m 12,5 km/h (3 Bft)
04.12.2017 06:00 -1,2 C 95 % 1029,1 hPa 0,4 l/m SW 0,00 h 0 W/m 9,5 km/h (2 Bft)
04.12.2017 07:00 -1,2 C 95 % 1029,8 hPa 0,4 l/m SW 0,00 h 0 W/m 8,6 km/h (2 Bft)
04.12.2017 08:00 -1,0 C 95 % 1030,3 hPa 0,0 l/m SW 0,00 h 9 W/m 12,2 km/h (2 Bft)
04.12.2017 09:00 -0,7 C 96 % 1030,9 hPa 0,0 l/m SW 0,00 h 29 W/m 10,2 km/h (2 Bft)
04.12.2017 10:00 -0,2 C 96 % 1031,3 hPa 0,0 l/m SW 0,00 h 53 W/m 11,4 km/h (2 Bft)
04.12.2017 11:00 0,2 C 95 % 1031,5 hPa 0,0 l/m SW 0,00 h 68 W/m 18,0 km/h (3 Bft)
04.12.2017 12:00 0,5 C 94 % 1031,2 hPa 0,0 l/m SW 0,00 h 80 W/m 12,2 km/h (2 Bft)
04.12.2017 13:00 0,8 C 93 % 1031,2 hPa 0,0 l/m SW 0,00 h 79 W/m 12,8 km/h (3 Bft)
04.12.2017 14:00 0,9 C 93 % 1031,1 hPa 0,0 l/m SW 0,00 h 60 W/m 12,6 km/h (3 Bft)
04.12.2017 15:00 0,8 C 93 % 1031,6 hPa 0,0 l/m S-SW 0,00 h 17 W/m 10,9 km/h (2 Bft)
04.12.2017 16:00 0,8 C 93 % 1032,0 hPa 0,0 l/m SW 0,00 h 10 W/m 7,9 km/h (2 Bft)
04.12.2017 17:00 0,7 C 94 % 1032,3 hPa 0,0 l/m SW 0,00 h 0 W/m 10,8 km/h (2 Bft)
04.12.2017 18:00 0,8 C 95 % 1032,8 hPa 0,0 l/m SW 0,00 h 0 W/m 9,9 km/h (2 Bft)
04.12.2017 19:00 1,1 C 95 % 1033,2 hPa 0,0 l/m W-SW 0,00 h 0 W/m 8,8 km/h (2 Bft)
04.12.2017 20:00 1,2 C 95 % 1033,5 hPa 0,0 l/m W-SW 0,00 h 0 W/m 9,8 km/h (2 Bft)
04.12.2017 21:00 1,2 C 95 % 1034,0 hPa 0,0 l/m N 0,00 h 0 W/m 3,2 km/h (1 Bft)
04.12.2017 22:00 1,2 C 96 % 1034,5 hPa 0,0 l/m W-SW 0,00 h 0 W/m 3,3 km/h (1 Bft)
04.12.2017 23:00 0,8 C 95 % 1035,2 hPa 0,0 l/m W-SW 0,00 h 0 W/m 2,1 km/h (1 Bft)
05.12.2017 00:00 0,6 C 96 % 1035,4 hPa 0,0 l/m W-SW 0,00 h 0 W/m 1,2 km/h (1 Bft)
05.12.2017 01:00 0,6 C 96 % 1035,6 hPa 0,0 l/m W-SW 0,00 h 0 W/m 0,9 km/h (0 Bft)
05.12.2017 02:00 0,6 C 96 % 1035,8 hPa 0,0 l/m W-SW 0,00 h 0 W/m 0,5 km/h (0 Bft)
05.12.2017 03:00 0,6 C 97 % 1035,9 hPa 0,0 l/m W-SW 0,00 h 0 W/m 1,1 km/h (0 Bft)
05.12.2017 04:00 0,6 C 97 % 1035,6 hPa 0,0 l/m W-SW 0,00 h 0 W/m 8,7 km/h (2 Bft)
05.12.2017 05:00 0,2 C 97 % 1035,7 hPa 0,0 l/m W-SW 0,00 h 0 W/m 7,5 km/h (2 Bft)
05.12.2017 06:00 -0,1 C 97 % 1036,0 hPa 0,0 l/m W-SW 0,00 h 0 W/m 4,6 km/h (1 Bft)
05.12.2017 07:00 -0,5 C 97 % 1036,2 hPa 0,0 l/m W-SW 0,00 h 5 W/m 6,0 km/h (2 Bft)
05.12.2017 08:00 -0,6 C 97 % 1036,7 hPa 0,0 l/m W-SW 0,83 h 46 W/m 2,0 km/h (1 Bft)
05.12.2017 09:00 0,1 C 98 % 1037,1 hPa 0,0 l/m N 0,58 h 107 W/m 2,9 km/h (1 Bft)
05.12.2017 10:00 1,4 C 96 % 1037,0 hPa 0,0 l/m W-SW 0,50 h 180 W/m 9,5 km/h (2 Bft)
05.12.2017 11:00 1,9 C 93 % 1037,0 hPa 0,0 l/m W-SW 0,58 h 195 W/m 9,8 km/h (2 Bft)
05.12.2017 12:00 1,8 C 95 % 1036,7 hPa 0,0 l/m SW 0,33 h 198 W/m 11,7 km/h (2 Bft)
05.12.2017 13:00 2,3 C 94 % 1036,4 hPa 0,0 l/m S-SW 0,75 h 243 W/m 16,4 km/h (3 Bft)
05.12.2017 14:00 2,1 C 95 % 1036,0 hPa 0,0 l/m SW 0,00 h 69 W/m 11,6 km/h (2 Bft)
05.12.2017 15:00 2,1 C 95 % 1036,0 hPa 0,0 l/m SW 0,00 h 46 W/m 11,6 km/h (2 Bft)
05.12.2017 16:00 2,1 C 95 % 1036,1 hPa 0,0 l/m SW 0,08 h 10 W/m 5,6 km/h (1 Bft)
05.12.2017 17:00 1,5 C 95 % 1036,2 hPa 0,0 l/m N 0,00 h 0 W/m 1,7 km/h (1 Bft)
05.12.2017 18:00 0,4 C 94 % 1036,2 hPa 0,0 l/m N 0,00 h 0 W/m 0,0 km/h (0 Bft)
05.12.2017 19:00 -0,6 C 94 % 1036,1 hPa 0,0 l/m N 0,00 h 0 W/m 0,0 km/h (0 Bft)
05.12.2017 20:00 -1,3 C 94 % 1036,3 hPa 0,0 l/m N 0,00 h 0 W/m 0,0 km/h (0 Bft)
05.12.2017 21:00 -1,3 C 95 % 1036,5 hPa 0,0 l/m N 0,00 h 0 W/m 0,3 km/h (0 Bft)
05.12.2017 22:00 -1,3 C 96 % 1036,3 hPa 0,0 l/m N 0,00 h 0 W/m 0,0 km/h (0 Bft)
05.12.2017 23:00 -1,9 C 96 % 1036,3 hPa 0,0 l/m N 0,00 h 0 W/m 0,3 km/h (0 Bft)
06.12.2017 00:00 -1,6 C 97 % 1036,0 hPa 0,0 l/m SW 0,00 h 0 W/m 4,0 km/h (1 Bft)
06.12.2017 01:00 -1,2 C 97 % 1035,7 hPa 0,0 l/m SW 0,00 h 0 W/m 0,7 km/h (0 Bft)
06.12.2017 02:00 -1,0 C 97 % 1035,8 hPa 0,0 l/m N 0,00 h 0 W/m 0,0 km/h (0 Bft)
06.12.2017 03:00 -0,9 C 97 % 1035,8 hPa 0,0 l/m N 0,00 h 0 W/m 0,4 km/h (0 Bft)
06.12.2017 04:00 -0,8 C 97 % 1035,4 hPa 0,0 l/m SW 0,00 h 0 W/m 5,6 km/h (1 Bft)
06.12.2017 05:00 -0,5 C 97 % 1035,4 hPa 0,0 l/m SW 0,00 h 0 W/m 4,0 km/h (1 Bft)
06.12.2017 06:00 -0,6 C 98 % 1035,2 hPa 0,0 l/m SW 0,00 h 0 W/m 7,7 km/h (2 Bft)
06.12.2017 07:00 -0,6 C 98 % 1035,1 hPa 0,0 l/m SW 0,00 h 0 W/m 8,6 km/h (2 Bft)
06.12.2017 08:00 -0,5 C 98 % 1035,3 hPa 0,0 l/m SW 0,00 h 16 W/m 9,3 km/h (2 Bft)
06.12.2017 09:00 -0,3 C 97 % 1035,1 hPa 0,0 l/m SW 0,00 h 50 W/m 7,8 km/h (2 Bft)
06.12.2017 10:00 0,2 C 97 % 1035,2 hPa 0,0 l/m SW 0,00 h 94 W/m 7,2 km/h (2 Bft)
06.12.2017 11:00 0,5 C 96 % 1034,8 hPa 0,0 l/m SW 0,00 h 108 W/m 9,0 km/h (2 Bft)
06.12.2017 12:00 0,7 C 94 % 1034,3 hPa 0,0 l/m SW 0,00 h 90 W/m 6,3 km/h (2 Bft)
06.12.2017 13:00 0,9 C 93 % 1033,8 hPa 0,0 l/m SW 0,00 h 78 W/m 3,9 km/h (1 Bft)
06.12.2017 14:00 1,1 C 92 % 1033,2 hPa 0,0 l/m N 0,00 h 56 W/m 0,4 km/h (0 Bft)
06.12.2017 15:00 1,0 C 91 % 1032,9 hPa 0,0 l/m SW 0,00 h 26 W/m 5,6 km/h (1 Bft)
06.12.2017 16:00 0,6 C 91 % 1032,8 hPa 0,0 l/m SW 0,00 h 7 W/m 4,4 km/h (1 Bft)
06.12.2017 17:00 0,3 C 92 % 1032,8 hPa 0,0 l/m SW 0,00 h 0 W/m 4,1 km/h (1 Bft)
06.12.2017 18:00 0,1 C 93 % 1032,6 hPa 0,0 l/m SW 0,00 h 0 W/m 6,6 km/h (2 Bft)
06.12.2017 19:00 3,1 C 89 % 1032,2 hPa 0,0 l/m SW 0,00 h 0 W/m 9,9 km/h (2 Bft)
06.12.2017 20:00 1,0 C 87 % 1031,7 hPa 0,0 l/m W-SW 0,00 h 0 W/m 11,7 km/h (2 Bft)
06.12.2017 21:00 -0,1 C 92 % 1031,2 hPa 0,0 l/m W-SW 0,00 h 0 W/m 11,3 km/h (2 Bft)
06.12.2017 22:00 -0,4 C 94 % 1030,7 hPa 0,0 l/m SW 0,00 h 0 W/m 11,5 km/h (2 Bft)
06.12.2017 23:00 -0,7 C 94 % 1030,3 hPa 0,0 l/m W-SW 0,00 h 0 W/m 10,9 km/h (2 Bft)
07.12.2017 00:00 -1,0 C 95 % 1029,6 hPa 0,0 l/m SW 0,00 h 0 W/m 10,3 km/h (2 Bft)
07.12.2017 01:00 -1,2 C 96 % 1029,1 hPa 0,0 l/m W-SW 0,00 h 0 W/m 11,4 km/h (2 Bft)
07.12.2017 02:00 -1,2 C 96 % 1028,7 hPa 0,0 l/m SW 0,00 h 0 W/m 12,9 km/h (3 Bft)
07.12.2017 03:00 -1,3 C 96 % 1028,2 hPa 0,0 l/m SW 0,00 h 0 W/m 16,5 km/h (3 Bft)
07.12.2017 04:00 -1,3 C 97 % 1027,7 hPa 0,0 l/m SW 0,00 h 0 W/m 14,4 km/h (3 Bft)
07.12.2017 05:00 -1,3 C 97 % 1027,4 hPa 0,0 l/m SW 0,00 h 0 W/m 13,6 km/h (3 Bft)
07.12.2017 06:00 -1,3 C 97 % 1027,1 hPa 0,0 l/m SW 0,00 h 0 W/m 12,4 km/h (3 Bft)
07.12.2017 07:00 -1,3 C 97 % 1026,9 hPa 0,0 l/m S-SW 0,00 h 0 W/m 12,0 km/h (2 Bft)
07.12.2017 08:00 -1,2 C 97 % 1026,6 hPa 0,0 l/m S-SW 0,00 h 21 W/m 13,6 km/h (3 Bft)
07.12.2017 09:00 -1,0 C 97 % 1026,4 hPa 0,0 l/m S-SW 0,00 h 64 W/m 14,4 km/h (3 Bft)
07.12.2017 10:00 -0,6 C 97 % 1026,2 hPa 0,0 l/m S-SW 0,00 h 109 W/m 11,3 km/h (2 Bft)
07.12.2017 11:00 0,2 C 97 % 1025,5 hPa 0,0 l/m S-SW 0,58 h 208 W/m 9,1 km/h (2 Bft)
07.12.2017 12:00 1,7 C 93 % 1024,4 hPa 0,0 l/m S-SW 1,00 h 317 W/m 11,7 km/h (2 Bft)
07.12.2017 13:00 2,7 C 90 % 1023,4 hPa 0,0 l/m S-SW 1,00 h 272 W/m 13,0 km/h (3 Bft)
07.12.2017 14:00 2,8 C 89 % 1022,3 hPa 0,0 l/m S-SW 1,00 h 173 W/m 13,6 km/h (3 Bft)
07.12.2017 15:00 2,5 C 88 % 1021,6 hPa 0,0 l/m S-SW 0,25 h 55 W/m 9,1 km/h (2 Bft)
07.12.2017 16:00 1,2 C 91 % 1021,0 hPa 0,0 l/m SW 0,08 h 11 W/m 10,3 km/h (2 Bft)
07.12.2017 17:00 0,3 C 93 % 1020,4 hPa 0,0 l/m SW 0,00 h 0 W/m 11,7 km/h (2 Bft)
07.12.2017 18:00 -0,1 C 94 % 1019,6 hPa 0,0 l/m SW 0,00 h 0 W/m 12,1 km/h (2 Bft)
07.12.2017 19:00 0,1 C 95 % 1019,2 hPa 0,0 l/m SW 0,00 h 0 W/m 11,7 km/h (2 Bft)
07.12.2017 20:00 0,3 C 94 % 1018,2 hPa 0,0 l/m SW 0,00 h 0 W/m 13,6 km/h (3 Bft)
07.12.2017 21:00 0,4 C 94 % 1017,0 hPa 0,0 l/m SW 0,00 h 0 W/m 15,0 km/h (3 Bft)
07.12.2017 22:00 1,0 C 93 % 1015,7 hPa 0,0 l/m SW 0,00 h 0 W/m 16,6 km/h (3 Bft)
07.12.2017 23:00 2,3 C 89 % 1014,6 hPa 0,0 l/m SW 0,00 h 0 W/m 19,6 km/h (3 Bft)
08.12.2017 00:00 4,1 C 81 % 1013,8 hPa 0,0 l/m SW 0,00 h 0 W/m 21,6 km/h (4 Bft)
08.12.2017 01:00 4,5 C 78 % 1013,0 hPa 0,0 l/m W-SW 0,00 h 0 W/m 17,7 km/h (3 Bft)
08.12.2017 02:00 4,4 C 82 % 1013,4 hPa 0,8 l/m W-SW 0,00 h 0 W/m 16,0 km/h (3 Bft)
08.12.2017 03:00 4,0 C 91 % 1013,0 hPa 0,2 l/m W-SW 0,00 h 0 W/m 26,0 km/h (4 Bft)
08.12.2017 04:00 4,3 C 94 % 1012,3 hPa 1,2 l/m W-SW 0,00 h 0 W/m 22,7 km/h (4 Bft)
08.12.2017 05:00 4,1 C 95 % 1012,1 hPa 1,2 l/m W-SW 0,00 h 0 W/m 20,5 km/h (4 Bft)
08.12.2017 06:00 3,9 C 96 % 1011,9 hPa 1,4 l/m W-SW 0,00 h 0 W/m 21,3 km/h (4 Bft)
08.12.2017 07:00 3,7 C 96 % 1011,6 hPa 0,2 l/m SW 0,00 h 0 W/m 18,5 km/h (3 Bft)
08.12.2017 08:00 3,6 C 97 % 1011,4 hPa 0,0 l/m SW 0,00 h 7 W/m 16,9 km/h (3 Bft)
08.12.2017 09:00 2,3 C 96 % 1011,7 hPa 1,4 l/m W-NW 0,00 h 15 W/m 12,9 km/h (3 Bft)
08.12.2017 10:00 1,5 C 96 % 1012,1 hPa 0,8 l/m W-NW 0,00 h 49 W/m 5,3 km/h (1 Bft)
08.12.2017 11:00 1,8 C 97 % 1011,9 hPa 0,0 l/m W 0,00 h 64 W/m 4,1 km/h (1 Bft)
08.12.2017 12:00 2,1 C 97 % 1011,7 hPa 0,0 l/m SW 0,00 h 46 W/m 6,3 km/h (2 Bft)
08.12.2017 13:00 2,3 C 97 % 1011,6 hPa 0,0 l/m SW 0,00 h 76 W/m 10,9 km/h (2 Bft)
08.12.2017 14:00 2,3 C 97 % 1011,7 hPa 0,0 l/m W-SW 0,00 h 43 W/m 16,2 km/h (3 Bft)
08.12.2017 15:00 0,7 C 95 % 1012,2 hPa 0,6 l/m W-NW 0,00 h 17 W/m 20,4 km/h (4 Bft)
08.12.2017 16:00 0,6 C 94 % 1012,4 hPa 0,2 l/m W 0,00 h 8 W/m 11,3 km/h (2 Bft)
08.12.2017 17:00 0,5 C 92 % 1012,6 hPa 0,0 l/m W 0,00 h 0 W/m 10,5 km/h (2 Bft)
08.12.2017 18:00 0,5 C 92 % 1012,9 hPa 0,0 l/m SW 0,00 h 0 W/m 8,8 km/h (2 Bft)
08.12.2017 19:00 -0,1 C 93 % 1013,2 hPa 0,0 l/m SW 0,00 h 0 W/m 12,9 km/h (3 Bft)
08.12.2017 20:00 -0,6 C 94 % 1013,3 hPa 0,0 l/m SW 0,00 h 0 W/m 12,5 km/h (3 Bft)
08.12.2017 21:00 -0,6 C 95 % 1013,0 hPa 0,0 l/m SW 0,00 h 0 W/m 14,1 km/h (3 Bft)
08.12.2017 22:00 -0,6 C 95 % 1012,5 hPa 0,0 l/m W-SW 0,00 h 0 W/m 16,0 km/h (3 Bft)
08.12.2017 23:00 -0,8 C 94 % 1012,9 hPa 0,0 l/m W-SW 0,00 h 0 W/m 11,7 km/h (2 Bft)
09.12.2017 00:00 -1,9 C 94 % 1012,9 hPa 0,6 l/m N 0,00 h 0 W/m 0,6 km/h (0 Bft)
09.12.2017 01:00 -2,5 C 94 % 1012,9 hPa 0,0 l/m W 0,00 h 0 W/m 6,1 km/h (2 Bft)
09.12.2017 02:00 -2,3 C 94 % 1013,7 hPa 0,2 l/m W 0,00 h 0 W/m 9,5 km/h (2 Bft)
09.12.2017 03:00 -2,3 C 94 % 1014,1 hPa 0,0 l/m W 0,00 h 0 W/m 8,3 km/h (2 Bft)
09.12.2017 04:00 -2,8 C 91 % 1014,5 hPa 0,0 l/m W-NW 0,00 h 0 W/m 3,6 km/h (1 Bft)
09.12.2017 05:00 -3,4 C 90 % 1014,6 hPa 0,0 l/m W-NW 0,00 h 0 W/m 8,4 km/h (2 Bft)
09.12.2017 06:00 -3,1 C 89 % 1015,0 hPa 0,0 l/m W 0,00 h 0 W/m 11,2 km/h (2 Bft)
09.12.2017 07:00 -3,0 C 88 % 1015,7 hPa 0,0 l/m W-SW 0,00 h 0 W/m 8,0 km/h (2 Bft)
09.12.2017 08:00 -3,2 C 88 % 1016,4 hPa 0,0 l/m SW 0,08 h 28 W/m 7,4 km/h (2 Bft)
09.12.2017 09:00 -2,5 C 87 % 1016,8 hPa 0,0 l/m SW 0,58 h 114 W/m 13,6 km/h (3 Bft)
09.12.2017 10:00 -1,8 C 85 % 1017,2 hPa 0,0 l/m W-SW 0,67 h 201 W/m 14,9 km/h (3 Bft)
09.12.2017 11:00 -1,3 C 81 % 1017,5 hPa 0,0 l/m W 0,08 h 139 W/m 15,3 km/h (3 Bft)
09.12.2017 12:00 -0,9 C 76 % 1017,5 hPa 0,0 l/m W-SW 0,50 h 240 W/m 20,8 km/h (4 Bft)
09.12.2017 13:00 -1,1 C 79 % 1017,1 hPa 0,0 l/m W 0,42 h 155 W/m 16,8 km/h (3 Bft)
09.12.2017 14:00 -0,4 C 76 % 1016,7 hPa 0,0 l/m W-SW 0,83 h 203 W/m 21,0 km/h (4 Bft)
09.12.2017 15:00 -1,2 C 81 % 1016,7 hPa 0,0 l/m W-SW 0,17 h 51 W/m 23,9 km/h (4 Bft)
09.12.2017 16:00 -1,8 C 81 % 1017,0 hPa 0,0 l/m W-SW 0,08 h 9 W/m 15,2 km/h (3 Bft)
09.12.2017 17:00 -2,3 C 83 % 1017,1 hPa 0,0 l/m W-SW 0,00 h 0 W/m 13,6 km/h (3 Bft)
09.12.2017 18:00 -2,6 C 85 % 1017,1 hPa 0,0 l/m W-SW 0,00 h 0 W/m 15,0 km/h (3 Bft)
09.12.2017 19:00 -2,8 C 85 % 1017,1 hPa 0,0 l/m SW 0,00 h 0 W/m 19,3 km/h (3 Bft)
09.12.2017 20:00 -3,1 C 84 % 1016,9 hPa 0,0 l/m W-SW 0,00 h 0 W/m 18,9 km/h (3 Bft)
09.12.2017 21:00 -3,7 C 85 % 1016,7 hPa 0,0 l/m SW 0,00 h 0 W/m 12,2 km/h (2 Bft)
09.12.2017 22:00 -3,9 C 87 % 1015,9 hPa 0,0 l/m SW 0,00 h 0 W/m 13,0 km/h (3 Bft)
09.12.2017 23:00 -3,9 C 88 % 1015,2 hPa 0,0 l/m W-SW 0,00 h 0 W/m 9,3 km/h (2 Bft)
10.12.2017 00:00 -4,1 C 89 % 1014,1 hPa 0,0 l/m SW 0,00 h 0 W/m 4,0 km/h (1 Bft)
10.12.2017 01:00 -3,8 C 90 % 1013,1 hPa 0,0 l/m SW 0,00 h 0 W/m 11,4 km/h (2 Bft)
10.12.2017 02:00 -3,5 C 88 % 1012,3 hPa 0,0 l/m SW 0,00 h 0 W/m 15,0 km/h (3 Bft)
10.12.2017 03:00 -3,2 C 86 % 1011,4 hPa 0,0 l/m W-SW 0,00 h 0 W/m 19,6 km/h (3 Bft)
10.12.2017 04:00 -3,5 C 86 % 1009,8 hPa 0,0 l/m SW 0,00 h 0 W/m 15,3 km/h (3 Bft)
10.12.2017 05:00 -3,3 C 84 % 1008,4 hPa 0,0 l/m W-SW 0,00 h 0 W/m 15,8 km/h (3 Bft)
10.12.2017 06:00 -3,5 C 83 % 1007,1 hPa 0,0 l/m W-SW 0,00 h 0 W/m 7,5 km/h (2 Bft)
10.12.2017 07:00 -4,5 C 85 % 1005,3 hPa 0,0 l/m N 0,00 h 5 W/m 0,5 km/h (0 Bft)
10.12.2017 08:00 -4,9 C 86 % 1002,7 hPa 0,0 l/m W-SW 0,33 h 35 W/m 0,4 km/h (0 Bft)
10.12.2017 09:00 -4,7 C 86 % 1000,3 hPa 0,0 l/m N 0,00 h 53 W/m 0,5 km/h (0 Bft)
10.12.2017 10:00 -3,9 C 84 % 998,1 hPa 0,0 l/m N 0,00 h 36 W/m 0,0 km/h (0 Bft)
10.12.2017 11:00 -3,5 C 85 % 995,6 hPa 0,0 l/m SW 0,00 h 24 W/m 2,1 km/h (1 Bft)
10.12.2017 12:00 -3,5 C 90 % 992,9 hPa 0,6 l/m SW 0,00 h 17 W/m 4,8 km/h (1 Bft)
10.12.2017 13:00 -3,0 C 93 % 990,9 hPa 1,4 l/m SW 0,00 h 17 W/m 11,9 km/h (2 Bft)
10.12.2017 14:00 -2,0 C 95 % 990,1 hPa 1,2 l/m W-SW 0,00 h 19 W/m 15,3 km/h (3 Bft)
10.12.2017 15:00 -1,8 C 95 % 990,9 hPa 2,2 l/m SW 0,00 h 17 W/m 16,9 km/h (3 Bft)
10.12.2017 16:00 -0,6 C 96 % 991,5 hPa 1,6 l/m SW 0,00 h 8 W/m 26,3 km/h (4 Bft)
10.12.2017 17:00 0,3 C 97 % 991,7 hPa 1,2 l/m SW 0,00 h 0 W/m 21,9 km/h (4 Bft)
10.12.2017 18:00 1,3 C 98 % 992,1 hPa 1,6 l/m SW 0,00 h 0 W/m 25,1 km/h (4 Bft)
10.12.2017 19:00 2,2 C 97 % 992,3 hPa 1,0 l/m SW 0,00 h 0 W/m 27,2 km/h (4 Bft)
10.12.2017 20:00 2,5 C 97 % 992,6 hPa 1,0 l/m SW 0,00 h 0 W/m 29,4 km/h (5 Bft)
10.12.2017 21:00 1,9 C 97 % 992,2 hPa 0,2 l/m SW 0,00 h 0 W/m 29,3 km/h (5 Bft)
10.12.2017 22:00 2,1 C 97 % 991,2 hPa 0,0 l/m SW 0,00 h 0 W/m 24,5 km/h (4 Bft)
10.12.2017 23:00 2,4 C 98 % 990,7 hPa 0,0 l/m SW 0,00 h 0 W/m 15,8 km/h (3 Bft)
Min-Datum _ 10.12.17 09.12.17 10.12.17 - - - - 04.12.17
_ Min-Zeit 08:50 12:35 14:15 - - - - 06:20
Minimum _ -5,0 C 74 % 989,7 hPa - - - - 0,0 km/h (0 Bft)
Max-Datum _ 06.12.17 05.12.17 05.12.17 10.12.17 - 05.12.17 09.12.17 08.12.17
_ Max-Zeit 19:25 09:00 09:45 15:05 - 08:10 12:45 14:55
Maximum _ 5,9 C 98 % 1037,3 hPa 2,2 l/m - 0,08 h 417 W/m 38,6 km/h
SW (5 Bft)
Durchschnitt _ -0,3 C 93 % 1021,7 hPa #22,2 l/m SW #11:20 h 76 W/m 11,0 km/h (2 Bft)